UKHH

Kharkiv International Airport

Kharkiv, Ukraine
TAF UKHH 161710Z 1618/1703 01003G08MPS 9999 BKN020CB BKN030 TEMPO 1618/1622 2100 -SHRA BKN007 BKN020CB PROB40 TEMPO 1618/1622 35009G16MPS -TSRA TEMPO 1622/1703 1200 TSRA BR SCT003 BKN007 BKN020CB
Issued Valid From Valid To
Jul-16 @ 17:10 UTC
(3 hours ago)
Jul-16 @ 18:00 UTC
(2 hours ago)
Jul-17 @ 03:00 UTC
(in 7 hours)
Jul-16 @ 18:00 to Jul-17 @ 03:00
TAF UKHH 161710Z 1618/1703 01003G08MPS 9999 BKN020CB BKN030
Wind Visibility Clouds
10° at 6 knots
 Gusting to 16 knots
10,000+ meters
  • Broken at 2,000' AGL
  • Broken at 3,000' AGL
Temporary Jul-16 @ 18:00 to Jul-16 @ 22:00
TEMPO 1618/1622 2100 -SHRA BKN007 BKN020CB
Visibility Clouds Conditions
2,092 meters
  • Broken at 700' AGL
  • Broken at 2,000' AGL
  • Light Rain
Temporary  (Probability 40%) Jul-16 @ 18:00 to Jul-16 @ 22:00
PROB40 TEMPO 1618/1622 35009G16MPS -TSRA
Wind Conditions
350° at 17 knots
 Gusting to 31 knots
  • Light Thunderstorm
  • Light Rain
Temporary Jul-16 @ 22:00 to Jul-17 @ 03:00
TEMPO 1622/1703 1200 TSRA BR SCT003 BKN007 BKN020CB
Visibility Clouds Conditions
1,207 meters
  • Scattered at 300' AGL
  • Broken at 700' AGL
  • Broken at 2,000' AGL
  • Thunderstorm
  • Rain
  • Mist
TAF UKHH 161710Z 1618/1703 01003G08MPS 9999 BKN020CB BKN030 TEMPO 1618/1622 2100 -SHRA BKN007 BKN020CB PROB40 TEMPO 1618/1622 35009G16MPS -TSRA TEMPO 1622/1703 1200 TSRA BR SCT003 BKN007 BKN020CB
Issued Jul-16 @ 17:10 UTC
(3 hours ago)
Valid From Jul-16 @ 18:00 UTC
(2 hours ago)
Valid To Jul-17 @ 03:00 UTC
(in 7 hours)
Jul-16 @ 18:00 - Jul-17 @ 03:00
Wind Visibility
10° at 6 knots
 Gusting to 16 knots
10,000+ meters
Clouds
  • Broken at 2,000' AGL
  • Broken at 3,000' AGL
Temporary Jul-16 @ 18:00 - Jul-16 @ 22:00
Clouds
  • Broken at 700' AGL
  • Broken at 2,000' AGL
Conditions
  • Light Rain
Probability 40% Temporary Jul-16 @ 18:00 - Jul-16 @ 22:00
Wind
350° at 17 knots
 Gusting to 31 knots
Conditions
  • Light Thunderstorm
  • Light Rain
Temporary Jul-16 @ 22:00 - Jul-17 @ 03:00
Clouds
  • Scattered at 300' AGL
  • Broken at 700' AGL
  • Broken at 2,000' AGL
Conditions
  • Thunderstorm
  • Rain
  • Mist